Time;durP1;ratioP1;P1;durP2;ratioP2;P2;SDS_P1;SDS_P2;PMS_P1;PMS_P2;Temp;Humidity;BMP_temperature;BMP_pressure;BME280_temperature;BME280_humidity;BME280_pressure;Samples;Min_cycle;Max_cycle;Signal;HPM_P1;HPM_P2
2022/09/30 08:01:56;;;;;;;23.73;21.42;;;;;;;8.94;93.27;100815.13;5286754;28;20390;-80
2022/09/30 08:04:27;;;;;;;23.00;20.85;;;;;;;9.03;93.56;100824.53;5270728;28;20102;-81
2022/09/30 08:07:01;;;;;;;25.25;22.75;;;;;;;9.05;94.17;100827.84;5268396;28;20438;-82
2022/09/30 08:09:33;;;;;;;21.90;19.70;;;;;;;9.10;93.62;100816.78;5265537;28;20029;-83
2022/09/30 08:12:05;;;;;;;22.52;20.30;;;;;;;9.18;94.19;100814.53;5260584;28;20028;-82
2022/09/30 08:14:36;;;;;;;22.08;19.80;;;;;;;9.26;93.92;100812.03;5274271;28;20086;-82
2022/09/30 08:17:07;;;;;;;25.65;22.95;;;;;;;9.34;93.60;100821.69;5280069;28;20029;-82
2022/09/30 08:19:42;;;;;;;25.85;23.25;;;;;;;9.35;93.73;100815.84;5276718;28;20482;-82
2022/09/30 08:22:15;;;;;;;27.52;24.90;;;;;;;9.39;93.77;100821.66;5259448;28;20029;-82
2022/09/30 08:24:46;;;;;;;26.50;23.88;;;;;;;9.51;93.06;100818.56;5270960;28;20043;-83
2022/09/30 08:27:17;;;;;;;28.65;25.65;;;;;;;9.67;93.61;100819.34;5269290;28;20230;-83
2022/09/30 08:29:52;;;;;;;25.55;23.13;;;;;;;9.68;93.28;100818.22;5276169;28;20044;-86
2022/09/30 08:32:23;;;;;;;26.38;23.90;;;;;;;9.75;94.06;100818.75;5274313;28;20048;-87
2022/09/30 08:34:54;;;;;;;23.63;21.10;;;;;;;9.74;94.39;100825.38;5279893;28;20026;-86
2022/09/30 08:37:26;;;;;;;27.48;22.35;;;;;;;9.89;94.22;100824.47;5282539;28;20040;-88
2022/09/30 08:39:57;;;;;;;24.88;22.25;;;;;;;9.88;94.34;100812.56;5284407;28;20177;-89
2022/09/30 08:42:57;;;;;;;25.08;22.48;;;;;;;10.00;94.55;100818.59;5279330;28;20029;-79
2022/09/30 08:46:06;;;;;;;23.83;21.65;;;;;;;10.13;94.16;100819.06;5279388;28;20107;-84
2022/09/30 08:49:13;;;;;;;22.83;20.48;;;;;;;10.22;94.55;100817.34;5280692;28;20086;-84
2022/09/30 08:51:47;;;;;;;23.60;21.42;;;;;;;10.27;94.83;100825.63;5279708;28;20032;-85
2022/09/30 08:54:25;;;;;;;20.45;18.42;;;;;;;10.33;94.06;100827.28;5270906;28;20096;-81
2022/09/30 08:56:57;;;;;;;21.73;19.20;;;;;;;10.38;94.97;100830.00;5271722;28;20096;-81
2022/09/30 08:59:41;;;;;;;22.38;20.00;;;;;;;10.50;94.58;100826.03;5277608;28;20158;-83
2022/09/30 09:02:19;;;;;;;22.38;20.17;;;;;;;10.59;95.47;100822.34;5278070;28;20025;-80
2022/09/30 09:04:51;;;;;;;24.40;20.63;;;;;;;10.65;95.45;100825.91;5272961;28;20033;-79
2022/09/30 09:07:51;;;;;;;25.25;22.48;;;;;;;10.75;95.03;100831.38;5267093;28;20036;-79
2022/09/30 09:10:38;;;;;;;22.35;19.98;;;;;;;10.84;95.00;100812.16;5278628;28;20106;-72
2022/09/30 09:13:15;;;;;;;21.60;19.52;;;;;;;10.94;95.94;100808.44;5252689;28;20029;-75
2022/09/30 09:16:00;;;;;;;21.02;18.92;;;;;;;10.98;95.53;100812.28;5248339;28;20040;-74
2022/09/30 09:18:43;;;;;;;21.83;19.23;;;;;;;11.05;95.46;100823.88;5259728;28;20112;-74
2022/09/30 09:21:52;;;;;;;18.33;16.38;;;;;;;11.21;94.76;100827.31;5256726;28;20065;-73
2022/09/30 09:24:27;;;;;;;19.25;17.25;;;;;;;11.35;94.35;100824.66;5249827;28;20490;-78
2022/09/30 09:26:58;;;;;;;18.95;17.15;;;;;;;11.39;95.25;100817.38;5246536;28;20041;-74
2022/09/30 09:29:47;;;;;;;19.20;17.30;;;;;;;11.50;95.04;100814.22;5258587;28;20028;-74
2022/09/30 09:32:19;;;;;;;15.85;14.38;;;;;;;11.57;94.18;100824.94;5263605;28;20032;-76
2022/09/30 09:34:56;;;;;;;15.10;13.68;;;;;;;11.64;93.80;100832.91;5255185;28;20021;-73
2022/09/30 09:40:59;;;;;;;16.95;15.15;;;;;;;11.80;93.91;100839.09;5260931;28;20045;-76
2022/09/30 09:43:42;;;;;;;13.10;11.90;;;;;;;11.94;93.76;100831.72;5244558;28;20033;-73
2022/09/30 09:46:32;;;;;;;22.63;20.35;;;;;;;12.06;92.26;100822.94;5242815;28;20083;-74
2022/09/30 09:49:12;;;;;;;14.20;12.85;;;;;;;12.08;92.38;100827.06;5241705;28;20603;-74
2022/09/30 09:51:57;;;;;;;14.48;13.18;;;;;;;12.17;92.49;100825.25;5247502;28;20040;-74
2022/09/30 09:54:36;;;;;;;13.65;12.27;;;;;;;12.26;90.74;100819.03;5261131;28;20264;-74
2022/09/30 09:57:10;;;;;;;12.85;11.55;;;;;;;12.26;89.85;100819.84;5241654;28;20025;-73
2022/09/30 10:03:25;;;;;;;15.63;11.50;;;;;;;12.54;89.49;100815.22;5250224;28;20440;-74
2022/09/30 10:06:06;;;;;;;14.82;11.88;;;;;;;12.70;89.50;100824.13;5246926;28;20068;-76
2022/09/30 10:08:50;;;;;;;12.75;11.45;;;;;;;12.72;89.68;100819.09;5256083;28;20483;-77
2022/09/30 10:11:24;;;;;;;12.18;10.68;;;;;;;12.76;88.73;100819.31;5242579;28;20040;-76
2022/09/30 10:13:58;;;;;;;13.60;12.20;;;;;;;12.86;87.38;100805.22;5245122;28;20056;-76
2022/09/30 10:16:30;;;;;;;9.07;8.23;;;;;;;12.81;85.91;100813.66;5257419;28;20967;-86
2022/09/30 10:19:27;;;;;;;9.45;8.55;;;;;;;12.89;86.42;100817.69;5260918;28;20418;-82
2022/09/30 10:22:23;;;;;;;8.50;7.80;;;;;;;13.10;86.13;100816.19;5246629;28;20038;-78
2022/09/30 10:25:08;;;;;;;9.45;8.55;;;;;;;13.18;85.05;100817.44;5255681;28;20598;-78
2022/09/30 10:27:49;;;;;;;11.57;10.23;;;;;;;13.22;84.45;100824.03;5248958;28;20040;-79
2022/09/30 10:30:39;;;;;;;10.80;9.70;;;;;;;13.28;84.02;100822.84;5262627;28;20032;-75
2022/09/30 10:33:19;;;;;;;8.60;7.78;;;;;;;13.45;81.50;100828.63;5255836;28;20026;-77
2022/09/30 10:36:06;;;;;;;8.75;7.95;;;;;;;13.52;80.62;100819.84;5253340;28;20495;-78
2022/09/30 10:38:46;;;;;;;8.73;7.93;;;;;;;13.65;81.26;100821.81;5242861;28;20030;-78
2022/09/30 10:41:27;;;;;;;9.80;8.02;;;;;;;13.66;80.97;100826.22;5245540;28;20029;-76
2022/09/30 10:44:02;;;;;;;8.32;7.53;;;;;;;13.81;80.21;100821.47;5250964;28;20028;-79
2022/09/30 10:46:37;;;;;;;9.23;8.27;;;;;;;13.81;79.06;100824.28;5261475;28;20025;-78
2022/09/30 10:49:46;;;;;;;8.35;7.28;;;;;;;13.86;76.98;100824.16;5243819;28;20033;-77
2022/09/30 10:52:22;;;;;;;9.50;7.68;;;;;;;13.91;76.83;100818.47;5241431;28;20040;-77
2022/09/30 10:54:56;;;;;;;6.43;5.57;;;;;;;13.99;76.12;100822.47;5260547;28;20039;-76
2022/09/30 10:57:33;;;;;;;6.88;5.55;;;;;;;14.04;75.61;100825.97;5261388;28;20025;-76
2022/09/30 11:00:12;;;;;;;6.22;4.65;;;;;;;14.11;74.23;100826.38;5257414;28;20448;-76
2022/09/30 11:02:53;;;;;;;5.18;4.50;;;;;;;14.21;73.73;100825.28;5267982;28;20032;-77
2022/09/30 11:05:30;;;;;;;7.05;4.25;;;;;;;14.27;71.61;100821.25;5280853;28;20037;-76
2022/09/30 11:08:12;;;;;;;5.55;4.55;;;;;;;14.20;71.67;100820.88;5261133;28;20326;-76
2022/09/30 11:11:09;;;;;;;5.35;4.00;;;;;;;14.27;71.47;100821.25;5255001;28;20021;-74
2022/09/30 11:14:00;;;;;;;5.60;4.00;;;;;;;14.32;71.99;100812.75;5251037;28;20640;-76
2022/09/30 11:17:05;;;;;;;4.85;3.42;;;;;;;14.44;71.98;100816.94;5256684;28;20105;-80
2022/09/30 11:20:17;;;;;;;4.75;4.10;;;;;;;14.48;72.46;100812.41;5249058;28;20069;-80
2022/09/30 11:23:17;;;;;;;6.15;4.90;;;;;;;14.56;71.88;100811.66;5262391;28;20377;-76
2022/09/30 11:25:59;;;;;;;5.47;4.10;;;;;;;14.61;71.61;100808.75;5244063;28;20076;-76
2022/09/30 11:28:48;;;;;;;4.75;4.32;;;;;;;14.76;70.86;100816.72;5259976;28;20384;-79
2022/09/30 11:31:29;;;;;;;4.25;3.85;;;;;;;14.76;69.46;100811.13;5260169;28;20033;-80
2022/09/30 11:34:35;;;;;;;7.28;5.80;;;;;;;14.89;69.26;100808.59;5261779;28;20033;-79
2022/09/30 11:37:24;;;;;;;4.82;4.03;;;;;;;14.82;69.45;100803.44;5257149;28;20026;-77
2022/09/30 11:40:44;;;;;;;5.43;4.75;;;;;;;14.64;69.45;100796.94;5243025;28;20044;-79
2022/09/30 11:43:21;;;;;;;5.20;3.92;;;;;;;14.68;69.52;100803.53;5220418;28;20041;-80
2022/09/30 11:46:30;;;;;;;4.88;3.95;;;;;;;14.81;70.38;100799.03;5240482;28;20032;-78
2022/09/30 11:49:13;;;;;;;4.35;3.95;;;;;;;14.93;70.24;100788.09;5239438;28;20041;-79
2022/09/30 11:52:05;;;;;;;4.20;3.80;;;;;;;15.05;68.94;100784.69;5240470;28;20112;-78
2022/09/30 11:54:36;;;;;;;4.35;3.22;;;;;;;15.17;68.22;100787.69;5252787;28;20103;-77
2022/09/30 11:57:19;;;;;;;5.57;4.57;;;;;;;15.33;68.07;100784.47;5258612;28;20024;-77
2022/09/30 11:59:57;;;;;;;5.65;3.90;;;;;;;15.37;68.02;100780.72;5262210;28;20045;-78
2022/09/30 12:02:36;;;;;;;3.42;3.13;;;;;;;15.46;66.63;100782.72;5248124;28;20111;-77
2022/09/30 12:05:25;;;;;;;4.40;3.67;;;;;;;15.45;67.11;100779.09;5282910;28;20099;-85
2022/09/30 12:08:23;;;;;;;3.00;2.75;;;;;;;15.36;67.41;100790.22;5292103;28;20028;-84
2022/09/30 12:11:15;;;;;;;5.20;4.80;;;;;;;15.31;67.03;100781.19;5289282;28;20408;-85
2022/09/30 12:13:58;;;;;;;5.15;3.47;;;;;;;15.41;65.37;100786.47;5288949;28;20077;-87
2022/09/30 12:16:32;;;;;;;4.25;2.88;;;;;;;15.48;64.58;100775.66;5275318;28;20028;-83
2022/09/30 12:19:14;;;;;;;3.05;2.75;;;;;;;15.51;64.18;100774.16;5253324;28;20029;-82
2022/09/30 12:21:55;;;;;;;3.10;2.80;;;;;;;15.61;65.17;100760.72;5242772;28;20025;-77
2022/09/30 12:24:30;;;;;;;3.58;2.97;;;;;;;15.60;65.28;100769.44;5252619;28;20029;-80
2022/09/30 12:27:04;;;;;;;7.30;6.28;;;;;;;15.65;64.82;100764.50;5257798;28;20060;-78
2022/09/30 12:32:59;;;;;;;12.60;11.03;;;;;;;15.56;65.26;100752.47;5252972;28;20476;-78
2022/09/30 12:35:39;;;;;;;4.38;3.95;;;;;;;15.46;65.84;100749.16;5253753;28;20511;-78
2022/09/30 12:38:38;;;;;;;3.75;3.40;;;;;;;15.44;66.24;100746.69;5239847;28;20088;-78
2022/09/30 12:41:27;;;;;;;5.93;5.30;;;;;;;15.52;65.57;100737.53;5241472;28;20034;-77
2022/09/30 12:44:22;;;;;;;3.78;3.00;;;;;;;15.48;65.57;100744.91;5256006;28;20029;-79
2022/09/30 12:47:14;;;;;;;6.10;4.47;;;;;;;15.81;64.53;100744.50;5257027;28;20036;-79
2022/09/30 12:49:47;;;;;;;4.03;2.08;;;;;;;15.95;62.69;100742.38;5243895;28;20029;-78
2022/09/30 12:52:21;;;;;;;2.00;1.60;;;;;;;16.00;62.38;100741.38;5242796;28;20030;-76
2022/09/30 12:55:26;;;;;;;4.75;2.45;;;;;;;15.90;62.73;100742.56;5247060;28;20110;-76
2022/09/30 12:58:00;;;;;;;2.10;1.90;;;;;;;15.89;61.98;100746.47;5252342;28;20041;-77
2022/09/30 13:00:34;;;;;;;7.90;2.03;;;;;;;16.13;62.23;100739.56;5251975;28;20072;-76
2022/09/30 13:03:14;;;;;;;4.43;2.03;;;;;;;16.14;61.67;100746.81;5250112;28;20029;-78
2022/09/30 13:05:51;;;;;;;3.85;2.40;;;;;;;16.03;62.89;100747.16;5264813;28;20074;-81
2022/09/30 13:08:36;;;;;;;7.97;3.85;;;;;;;15.94;64.07;100749.13;5271658;28;20025;-82
2022/09/30 13:11:30;;;;;;;3.95;2.53;;;;;;;15.90;63.55;100736.97;5245046;28;20033;-83
2022/09/30 13:14:23;;;;;;;12.85;10.75;;;;;;;15.96;64.48;100729.22;5259585;28;20452;-83
2022/09/30 13:17:07;;;;;;;3.95;2.78;;;;;;;15.83;63.79;100728.22;5268282;28;20044;-82
2022/09/30 13:19:40;;;;;;;6.78;2.45;;;;;;;15.90;62.82;100722.13;5273404;28;20041;-83
2022/09/30 13:22:28;;;;;;;2.78;2.10;;;;;;;16.01;61.81;100723.47;5274595;28;20020;-83
2022/09/30 13:25:01;;;;;;;5.15;2.08;;;;;;;16.15;62.27;100720.47;5275989;28;20032;-83
2022/09/30 13:27:37;;;;;;;4.07;2.55;;;;;;;16.20;61.97;100723.09;5263271;28;20358;-84
2022/09/30 13:30:11;;;;;;;6.88;3.50;;;;;;;16.24;61.62;100726.91;5273580;28;20040;-81
2022/09/30 13:33:24;;;;;;;9.82;7.20;;;;;;;16.14;62.10;100722.47;5248044;28;20033;-81
2022/09/30 13:35:58;;;;;;;3.70;2.45;;;;;;;15.96;61.95;100712.44;5241678;28;20025;-77
2022/09/30 13:38:39;;;;;;;4.53;3.42;;;;;;;15.95;63.14;100710.78;5241801;28;20029;-78
2022/09/30 13:41:19;;;;;;;3.65;2.60;;;;;;;15.82;63.72;100712.59;5242294;28;20029;-77
2022/09/30 13:44:13;;;;;;;4.28;2.40;;;;;;;15.73;64.65;100704.19;5253755;28;20013;-77
2022/09/30 13:46:58;;;;;;;3.75;2.22;;;;;;;15.70;64.36;100692.84;5261725;28;20030;-80
2022/09/30 13:49:42;;;;;;;3.10;2.17;;;;;;;15.71;64.60;100697.28;5262598;28;20476;-81
2022/09/30 13:52:26;;;;;;;4.30;2.20;;;;;;;15.71;64.38;100694.50;5262845;28;20037;-77
2022/09/30 13:55:05;;;;;;;3.53;2.20;;;;;;;15.76;64.49;100691.53;5263298;28;20526;-75
2022/09/30 13:57:51;;;;;;;5.38;2.15;;;;;;;15.73;64.08;100690.22;5261880;28;20078;-75
2022/09/30 14:01:03;;;;;;;4.15;2.20;;;;;;;15.75;64.31;100692.69;5254913;28;20492;-75
2022/09/30 14:03:58;;;;;;;6.03;1.90;;;;;;;15.65;64.62;100685.41;5241008;28;20028;-75
2022/09/30 14:06:37;;;;;;;4.15;2.35;;;;;;;15.65;64.43;100679.84;5246270;28;20100;-73
2022/09/30 14:09:11;;;;;;;2.75;2.20;;;;;;;15.71;63.99;100684.13;5252822;28;20030;-75
2022/09/30 14:12:24;;;;;;;3.05;2.20;;;;;;;15.80;64.20;100681.34;5272359;28;20037;-77
2022/09/30 14:15:03;;;;;;;2.75;1.98;;;;;;;15.88;63.81;100674.94;5242655;28;20041;-77
2022/09/30 14:17:53;;;;;;;4.68;2.65;;;;;;;15.89;63.53;100664.56;5242709;28;20034;-76
2022/09/30 14:20:38;;;;;;;3.10;2.58;;;;;;;15.94;63.13;100667.19;5241520;28;20037;-72
2022/09/30 14:23:17;;;;;;;2.60;1.70;;;;;;;15.96;63.28;100664.91;5241263;28;20104;-71
2022/09/30 14:26:14;;;;;;;4.20;2.10;;;;;;;16.03;62.19;100662.41;5259536;28;20543;-70
2022/09/30 14:29:03;;;;;;;;;;;;;;;16.11;60.94;100664.38;5257670;28;20033;-76
2022/09/30 14:31:43;;;;;;;3.08;1.75;;;;;;;16.16;59.02;100664.22;5241836;28;20257;-78
2022/09/30 14:34:20;;;;;;;2.55;1.80;;;;;;;16.15;58.03;100656.13;5249024;28;20503;-75
2022/09/30 14:36:52;;;;;;;2.58;1.85;;;;;;;16.13;58.55;100655.63;5262460;28;20098;-76
2022/09/30 14:39:28;;;;;;;4.63;2.25;;;;;;;16.14;58.30;100665.69;5261332;28;20023;-76
2022/09/30 14:42:03;;;;;;;7.30;3.70;;;;;;;16.12;58.69;100668.81;5261893;28;20104;-71
2022/09/30 14:44:37;;;;;;;2.85;2.00;;;;;;;16.03;59.12;100656.84;5263343;28;20035;-74
2022/09/30 14:47:15;;;;;;;3.15;1.90;;;;;;;16.04;59.12;100658.47;5266162;28;20036;-72
2022/09/30 14:49:48;;;;;;;7.20;2.30;;;;;;;16.03;59.55;100656.84;5265416;28;20017;-73
2022/09/30 14:52:46;;;;;;;3.72;2.00;;;;;;;16.04;60.47;100652.88;5247993;28;20459;-74
2022/09/30 14:55:24;;;;;;;4.90;2.28;;;;;;;16.01;60.07;100654.34;5244841;28;20057;-76
2022/09/30 14:58:22;;;;;;;6.13;2.13;;;;;;;16.03;60.12;100657.66;5263981;28;20032;-73
2022/09/30 15:01:00;;;;;;;4.15;2.22;;;;;;;16.05;60.48;100646.09;5260604;28;20559;-71
2022/09/30 15:03:38;;;;;;;2.47;2.08;;;;;;;16.13;60.79;100644.44;5255301;28;20025;-76
2022/09/30 15:06:22;;;;;;;3.10;2.10;;;;;;;16.14;59.78;100648.91;5270343;28;20029;-76
2022/09/30 15:09:06;;;;;;;2.78;1.83;;;;;;;16.17;59.89;100646.25;5271907;28;20104;-78
2022/09/30 15:11:38;;;;;;;3.58;1.88;;;;;;;16.25;59.50;100650.19;5266672;28;20472;-78
2022/09/30 15:14:19;;;;;;;3.38;2.40;;;;;;;16.34;59.26;100644.59;5269141;28;20037;-77
2022/09/30 15:16:56;;;;;;;2.10;1.83;;;;;;;16.38;58.47;100654.75;5261762;28;20055;-79
2022/09/30 15:19:42;;;;;;;3.75;2.22;;;;;;;16.45;58.16;100631.88;5261963;28;20025;-79
2022/09/30 15:22:13;;;;;;;;;;;;;;;16.47;58.17;100640.75;5261885;28;20037;-78
2022/09/30 15:24:46;;;;;;;4.00;1.88;;;;;;;16.33;57.23;100654.13;5259236;28;19917;-82
2022/09/30 15:27:29;;;;;;;5.45;2.47;;;;;;;16.40;57.66;100644.06;5241206;28;20036;-82
2022/09/30 15:30:20;;;;;;;6.35;3.63;;;;;;;16.30;56.83;100652.81;5247952;28;20430;-81
2022/09/30 15:33:03;;;;;;;4.72;3.38;;;;;;;16.35;57.64;100655.44;5266405;28;20025;-82
2022/09/30 15:35:35;;;;;;;5.05;4.30;;;;;;;16.33;57.79;100648.53;5271885;28;20025;-77
2022/09/30 15:38:25;;;;;;;4.63;4.18;;;;;;;16.30;58.53;100658.41;5273304;28;20047;-79
2022/09/30 15:41:03;;;;;;;3.20;2.90;;;;;;;16.29;58.93;100649.19;5261944;28;20496;-79
2022/09/30 15:43:35;;;;;;;8.70;6.32;;;;;;;16.30;59.27;100653.63;5261038;28;20183;-77
2022/09/30 15:46:17;;;;;;;4.18;3.13;;;;;;;16.22;58.01;100651.69;5260646;28;20104;-77
2022/09/30 15:48:48;;;;;;;5.68;3.70;;;;;;;16.18;58.19;100652.66;5260606;28;20078;-77
2022/09/30 15:51:33;;;;;;;22.77;17.15;;;;;;;16.20;58.38;100658.75;5261476;28;20498;-77
2022/09/30 15:54:13;;;;;;;11.65;7.20;;;;;;;16.13;58.31;100648.09;5261666;28;20048;-80
2022/09/30 15:56:45;;;;;;;15.90;12.95;;;;;;;16.05;57.71;100644.16;5261052;28;20032;-80
2022/09/30 15:59:16;;;;;;;9.32;7.57;;;;;;;16.02;57.79;100653.19;5260404;28;20025;-80
2022/09/30 16:01:50;;;;;;;6.40;3.55;;;;;;;15.95;58.76;100661.28;5260906;28;20079;-77
2022/09/30 16:04:25;;;;;;;14.45;12.50;;;;;;;15.89;58.84;100657.00;5261141;28;20120;-77
2022/09/30 16:07:06;;;;;;;13.98;10.18;;;;;;;15.88;59.41;100663.75;5273440;28;20033;-78
2022/09/30 16:09:41;;;;;;;8.32;6.43;;;;;;;15.82;59.52;100662.25;5269546;28;20036;-77
2022/09/30 16:12:12;;;;;;;10.90;7.68;;;;;;;15.80;59.54;100659.00;5273030;28;20013;-80
2022/09/30 16:14:53;;;;;;;11.13;9.57;;;;;;;15.76;59.55;100653.22;5271607;28;20065;-79
2022/09/30 16:17:38;;;;;;;15.13;13.63;;;;;;;15.73;59.66;100658.66;5261794;28;20082;-80
2022/09/30 16:20:12;;;;;;;12.40;10.63;;;;;;;15.68;60.00;100662.41;5261503;28;20041;-80
2022/09/30 16:22:43;;;;;;;12.65;10.80;;;;;;;15.63;59.79;100655.00;5263816;28;20083;-78
2022/09/30 16:25:23;;;;;;;3.67;3.00;;;;;;;15.52;60.75;100659.28;5261629;28;20083;-78
2022/09/30 16:27:57;;;;;;;7.28;4.10;;;;;;;15.51;60.44;100652.03;5245346;28;20084;-77
2022/09/30 16:30:31;;;;;;;7.40;4.85;;;;;;;15.47;60.83;100648.25;5251170;28;20037;-78
2022/09/30 16:33:05;;;;;;;5.00;4.50;;;;;;;15.43;60.90;100650.03;5260015;28;20030;-72
2022/09/30 16:35:36;;;;;;;13.73;9.57;;;;;;;15.41;61.93;100646.75;5243357;28;20396;-72
2022/09/30 16:38:11;;;;;;;7.05;3.50;;;;;;;15.38;62.17;100642.63;5242556;28;20080;-74
2022/09/30 16:40:43;;;;;;;9.15;4.60;;;;;;;15.32;61.83;100640.34;5244196;28;20026;-80
2022/09/30 16:43:15;;;;;;;6.03;4.68;;;;;;;15.27;61.70;100640.50;5243938;28;20546;-77
2022/09/30 16:45:47;;;;;;;11.52;4.63;;;;;;;15.27;62.44;100629.31;5242931;28;20022;-78
2022/09/30 16:48:20;;;;;;;7.35;4.75;;;;;;;15.18;62.47;100635.69;5244008;28;20360;-81
2022/09/30 16:51:15;;;;;;;8.23;4.13;;;;;;;15.12;63.05;100631.44;5256576;28;20099;-82
2022/09/30 16:53:47;;;;;;;4.65;4.25;;;;;;;15.14;63.13;100640.31;5266865;28;20032;-81
2022/09/30 16:56:19;;;;;;;5.13;4.30;;;;;;;15.09;63.38;100634.88;5268957;28;20179;-81
2022/09/30 16:58:50;;;;;;;8.70;3.00;;;;;;;15.00;63.61;100640.44;5266181;28;20032;-78
2022/09/30 17:01:24;;;;;;;3.72;2.58;;;;;;;15.02;63.83;100639.28;5264501;28;20055;-77
2022/09/30 17:03:57;;;;;;;3.70;2.90;;;;;;;15.00;63.85;100634.03;5264869;28;20024;-79
2022/09/30 17:06:30;;;;;;;3.78;3.08;;;;;;;14.96;64.39;100624.66;5263357;28;20047;-78
2022/09/30 17:09:03;;;;;;;3.65;2.88;;;;;;;14.88;64.69;100622.66;5243741;28;20033;-77
2022/09/30 17:11:37;;;;;;;4.53;2.60;;;;;;;14.92;64.65;100624.47;5243908;28;20064;-77
2022/09/30 17:14:08;;;;;;;3.45;2.45;;;;;;;14.94;64.98;100613.00;5254172;28;20048;-75
2022/09/30 17:16:39;;;;;;;3.90;2.45;;;;;;;14.93;65.02;100628.94;5264270;28;20021;-77
2022/09/30 17:19:12;;;;;;;4.75;2.78;;;;;;;14.87;65.38;100621.03;5263716;28;20047;-78
2022/09/30 17:21:46;;;;;;;3.88;2.53;;;;;;;14.85;65.56;100617.72;5262916;28;20044;-80
2022/09/30 17:24:18;;;;;;;3.03;2.50;;;;;;;14.79;65.53;100612.28;5263987;28;20380;-77
2022/09/30 17:26:52;;;;;;;5.80;2.33;;;;;;;14.72;65.76;100617.50;5263418;28;20037;-77
2022/09/30 17:29:24;;;;;;;3.63;2.65;;;;;;;14.69;65.88;100625.72;5263833;28;20431;-77
2022/09/30 17:31:55;;;;;;;4.22;2.70;;;;;;;14.73;65.47;100624.75;5259717;28;20025;-76
